sensor_id;sensor_type;location;lat;lon;timestamp;P1;durP1;ratioP1;P2;durP2;ratioP2
25868;SDS011;13688;53.154;18.136;2023-04-24T00:02:00;7.90;;;5.78;;
25868;SDS011;13688;53.154;18.136;2023-04-24T00:07:23;8.48;;;5.97;;
25868;SDS011;13688;53.154;18.136;2023-04-24T00:12:45;8.53;;;6.20;;
25868;SDS011;13688;53.154;18.136;2023-04-24T00:18:08;6.75;;;6.00;;
25868;SDS011;13688;53.154;18.136;2023-04-24T00:23:30;10.23;;;6.70;;
25868;SDS011;13688;53.154;18.136;2023-04-24T00:28:52;9.30;;;7.10;;
25868;SDS011;13688;53.154;18.136;2023-04-24T00:34:15;7.67;;;6.03;;
25868;SDS011;13688;53.154;18.136;2023-04-24T00:39:37;9.55;;;5.95;;
25868;SDS011;13688;53.154;18.136;2023-04-24T00:44:59;8.23;;;5.87;;
25868;SDS011;13688;53.154;18.136;2023-04-24T00:50:23;9.78;;;6.75;;
25868;SDS011;13688;53.154;18.136;2023-04-24T00:55:46;11.80;;;7.15;;
25868;SDS011;13688;53.154;18.136;2023-04-24T01:01:09;14.25;;;7.30;;
25868;SDS011;13688;53.154;18.136;2023-04-24T01:06:33;9.65;;;6.28;;
25868;SDS011;13688;53.154;18.136;2023-04-24T01:11:57;8.68;;;6.62;;
25868;SDS011;13688;53.154;18.136;2023-04-24T01:17:20;9.83;;;7.22;;
25868;SDS011;13688;53.154;18.136;2023-04-24T01:22:43;10.18;;;7.20;;
25868;SDS011;13688;53.154;18.136;2023-04-24T01:28:06;12.47;;;8.40;;
25868;SDS011;13688;53.154;18.136;2023-04-24T01:33:29;12.50;;;9.63;;
25868;SDS011;13688;53.154;18.136;2023-04-24T01:38:52;11.63;;;8.53;;
25868;SDS011;13688;53.154;18.136;2023-04-24T01:44:15;14.10;;;9.60;;
25868;SDS011;13688;53.154;18.136;2023-04-24T01:49:39;14.00;;;9.38;;
25868;SDS011;13688;53.154;18.136;2023-04-24T01:55:05;14.65;;;9.88;;
25868;SDS011;13688;53.154;18.136;2023-04-24T02:00:27;15.03;;;10.38;;
25868;SDS011;13688;53.154;18.136;2023-04-24T02:05:50;16.40;;;10.95;;
25868;SDS011;13688;53.154;18.136;2023-04-24T02:11:13;18.65;;;11.55;;
25868;SDS011;13688;53.154;18.136;2023-04-24T02:16:35;19.87;;;13.50;;
25868;SDS011;13688;53.154;18.136;2023-04-24T02:21:58;22.65;;;13.10;;
25868;SDS011;13688;53.154;18.136;2023-04-24T02:27:21;21.20;;;13.88;;
25868;SDS011;13688;53.154;18.136;2023-04-24T02:32:43;20.40;;;13.65;;
25868;SDS011;13688;53.154;18.136;2023-04-24T02:38:06;18.52;;;13.58;;
25868;SDS011;13688;53.154;18.136;2023-04-24T02:43:29;24.85;;;15.15;;
25868;SDS011;13688;53.154;18.136;2023-04-24T02:48:51;20.75;;;14.35;;
25868;SDS011;13688;53.154;18.136;2023-04-24T02:54:16;20.08;;;13.43;;
25868;SDS011;13688;53.154;18.136;2023-04-24T02:59:38;21.30;;;14.65;;
25868;SDS011;13688;53.154;18.136;2023-04-24T03:05:01;29.20;;;16.42;;
25868;SDS011;13688;53.154;18.136;2023-04-24T03:10:23;23.35;;;15.93;;
25868;SDS011;13688;53.154;18.136;2023-04-24T03:15:47;21.45;;;15.08;;
25868;SDS011;13688;53.154;18.136;2023-04-24T03:21:10;19.02;;;13.83;;
25868;SDS011;13688;53.154;18.136;2023-04-24T03:26:32;23.80;;;15.45;;
25868;SDS011;13688;53.154;18.136;2023-04-24T03:31:55;20.40;;;13.85;;
25868;SDS011;13688;53.154;18.136;2023-04-24T03:37:17;21.37;;;14.15;;
25868;SDS011;13688;53.154;18.136;2023-04-24T03:42:39;23.95;;;15.65;;
25868;SDS011;13688;53.154;18.136;2023-04-24T03:48:02;23.38;;;15.15;;
25868;SDS011;13688;53.154;18.136;2023-04-24T03:53:24;24.25;;;14.75;;
25868;SDS011;13688;53.154;18.136;2023-04-24T03:58:46;24.75;;;15.80;;
25868;SDS011;13688;53.154;18.136;2023-04-24T04:04:09;22.07;;;14.68;;
25868;SDS011;13688;53.154;18.136;2023-04-24T04:09:31;24.32;;;14.63;;
25868;SDS011;13688;53.154;18.136;2023-04-24T04:14:54;24.90;;;14.83;;
25868;SDS011;13688;53.154;18.136;2023-04-24T04:20:16;19.42;;;13.58;;
25868;SDS011;13688;53.154;18.136;2023-04-24T04:25:39;26.17;;;14.78;;
25868;SDS011;13688;53.154;18.136;2023-04-24T04:31:01;20.95;;;14.30;;
25868;SDS011;13688;53.154;18.136;2023-04-24T04:36:24;22.02;;;13.90;;
25868;SDS011;13688;53.154;18.136;2023-04-24T04:41:47;20.10;;;12.75;;
25868;SDS011;13688;53.154;18.136;2023-04-24T04:47:10;22.77;;;14.60;;
25868;SDS011;13688;53.154;18.136;2023-04-24T04:52:34;19.77;;;14.25;;
25868;SDS011;13688;53.154;18.136;2023-04-24T04:57:57;22.55;;;15.95;;
25868;SDS011;13688;53.154;18.136;2023-04-24T05:03:19;23.70;;;17.35;;
25868;SDS011;13688;53.154;18.136;2023-04-24T05:08:42;22.40;;;16.80;;
25868;SDS011;13688;53.154;18.136;2023-04-24T05:14:04;23.30;;;15.20;;
25868;SDS011;13688;53.154;18.136;2023-04-24T05:19:26;22.05;;;14.95;;
25868;SDS011;13688;53.154;18.136;2023-04-24T05:24:50;22.42;;;15.18;;
25868;SDS011;13688;53.154;18.136;2023-04-24T05:30:12;23.27;;;14.95;;
25868;SDS011;13688;53.154;18.136;2023-04-24T05:35:35;21.37;;;14.05;;
25868;SDS011;13688;53.154;18.136;2023-04-24T05:40:58;20.95;;;15.10;;
25868;SDS011;13688;53.154;18.136;2023-04-24T05:46:20;22.30;;;15.65;;
25868;SDS011;13688;53.154;18.136;2023-04-24T05:51:43;22.55;;;15.70;;
25868;SDS011;13688;53.154;18.136;2023-04-24T05:57:07;21.70;;;14.40;;
25868;SDS011;13688;53.154;18.136;2023-04-24T06:02:29;19.85;;;14.43;;
25868;SDS011;13688;53.154;18.136;2023-04-24T06:07:53;22.58;;;14.38;;
25868;SDS011;13688;53.154;18.136;2023-04-24T06:13:15;19.35;;;14.23;;
25868;SDS011;13688;53.154;18.136;2023-04-24T06:18:38;23.30;;;15.45;;
25868;SDS011;13688;53.154;18.136;2023-04-24T06:24:02;22.32;;;14.38;;
25868;SDS011;13688;53.154;18.136;2023-04-24T06:29:26;23.55;;;14.18;;
25868;SDS011;13688;53.154;18.136;2023-04-24T06:34:50;19.25;;;13.53;;
25868;SDS011;13688;53.154;18.136;2023-04-24T06:40:15;17.60;;;13.60;;
25868;SDS011;13688;53.154;18.136;2023-04-24T06:45:39;21.42;;;12.63;;
25868;SDS011;13688;53.154;18.136;2023-04-24T06:51:04;21.62;;;14.28;;
25868;SDS011;13688;53.154;18.136;2023-04-24T06:56:27;20.82;;;13.45;;
25868;SDS011;13688;53.154;18.136;2023-04-24T07:01:51;24.27;;;12.70;;
25868;SDS011;13688;53.154;18.136;2023-04-24T07:07:14;18.48;;;12.13;;
25868;SDS011;13688;53.154;18.136;2023-04-24T07:12:36;16.35;;;12.35;;
25868;SDS011;13688;53.154;18.136;2023-04-24T07:18:00;16.50;;;10.85;;
25868;SDS011;13688;53.154;18.136;2023-04-24T07:23:23;16.85;;;11.08;;
25868;SDS011;13688;53.154;18.136;2023-04-24T07:28:46;19.23;;;11.03;;
25868;SDS011;13688;53.154;18.136;2023-04-24T07:34:09;16.35;;;11.10;;
25868;SDS011;13688;53.154;18.136;2023-04-24T07:39:47;16.57;;;10.30;;
25868;SDS011;13688;53.154;18.136;2023-04-24T07:45:09;16.53;;;9.70;;
25868;SDS011;13688;53.154;18.136;2023-04-24T07:50:32;13.70;;;8.53;;
25868;SDS011;13688;53.154;18.136;2023-04-24T07:55:55;11.90;;;8.27;;
25868;SDS011;13688;53.154;18.136;2023-04-24T08:01:18;13.27;;;9.03;;
25868;SDS011;13688;53.154;18.136;2023-04-24T08:06:41;10.43;;;8.20;;
25868;SDS011;13688;53.154;18.136;2023-04-24T08:12:04;15.30;;;10.17;;
25868;SDS011;13688;53.154;18.136;2023-04-24T08:17:26;14.33;;;8.50;;
25868;SDS011;13688;53.154;18.136;2023-04-24T08:22:50;11.30;;;7.70;;
25868;SDS011;13688;53.154;18.136;2023-04-24T08:28:13;10.10;;;7.27;;
25868;SDS011;13688;53.154;18.136;2023-04-24T08:33:37;25.50;;;18.40;;
25868;SDS011;13688;53.154;18.136;2023-04-24T08:39:00;9.83;;;7.13;;
25868;SDS011;13688;53.154;18.136;2023-04-24T08:44:24;9.70;;;6.33;;
25868;SDS011;13688;53.154;18.136;2023-04-24T08:49:48;10.40;;;6.37;;
25868;SDS011;13688;53.154;18.136;2023-04-24T08:55:13;8.55;;;6.28;;
25868;SDS011;13688;53.154;18.136;2023-04-24T09:00:37;10.30;;;6.47;;
25868;SDS011;13688;53.154;18.136;2023-04-24T09:06:01;8.55;;;5.70;;
25868;SDS011;13688;53.154;18.136;2023-04-24T09:11:26;8.28;;;5.80;;
25868;SDS011;13688;53.154;18.136;2023-04-24T09:16:49;8.50;;;6.05;;
25868;SDS011;13688;53.154;18.136;2023-04-24T09:22:13;10.68;;;6.78;;
25868;SDS011;13688;53.154;18.136;2023-04-24T09:27:44;12.83;;;9.20;;
25868;SDS011;13688;53.154;18.136;2023-04-24T09:33:15;7.63;;;6.57;;
25868;SDS011;13688;53.154;18.136;2023-04-24T09:38:39;9.35;;;7.50;;
25868;SDS011;13688;53.154;18.136;2023-04-24T09:44:11;8.25;;;6.62;;
25868;SDS011;13688;53.154;18.136;2023-04-24T09:49:36;9.73;;;7.37;;
25868;SDS011;13688;53.154;18.136;2023-04-24T09:54:59;9.50;;;6.90;;
25868;SDS011;13688;53.154;18.136;2023-04-24T10:00:27;7.67;;;6.58;;
25868;SDS011;13688;53.154;18.136;2023-04-24T10:05:51;9.03;;;6.80;;
25868;SDS011;13688;53.154;18.136;2023-04-24T10:11:16;9.28;;;6.45;;
25868;SDS011;13688;53.154;18.136;2023-04-24T10:16:41;9.28;;;6.58;;
25868;SDS011;13688;53.154;18.136;2023-04-24T10:22:05;7.83;;;6.60;;
25868;SDS011;13688;53.154;18.136;2023-04-24T10:27:30;8.80;;;6.22;;
25868;SDS011;13688;53.154;18.136;2023-04-24T10:32:55;8.30;;;6.35;;
25868;SDS011;13688;53.154;18.136;2023-04-24T10:38:24;9.13;;;5.77;;
25868;SDS011;13688;53.154;18.136;2023-04-24T10:43:48;10.75;;;5.62;;
25868;SDS011;13688;53.154;18.136;2023-04-24T10:49:28;9.23;;;6.45;;
25868;SDS011;13688;53.154;18.136;2023-04-24T10:54:52;13.18;;;7.42;;
25868;SDS011;13688;53.154;18.136;2023-04-24T11:00:19;11.15;;;6.78;;
25868;SDS011;13688;53.154;18.136;2023-04-24T11:11:21;11.03;;;6.97;;
25868;SDS011;13688;53.154;18.136;2023-04-24T11:16:53;17.33;;;8.57;;
25868;SDS011;13688;53.154;18.136;2023-04-24T11:22:15;11.67;;;7.93;;
25868;SDS011;13688;53.154;18.136;2023-04-24T11:27:41;12.65;;;9.23;;
25868;SDS011;13688;53.154;18.136;2023-04-24T11:33:14;10.68;;;8.35;;
25868;SDS011;13688;53.154;18.136;2023-04-24T11:38:39;16.87;;;10.05;;
25868;SDS011;13688;53.154;18.136;2023-04-24T11:44:03;14.10;;;9.03;;
25868;SDS011;13688;53.154;18.136;2023-04-24T11:49:30;16.50;;;9.50;;
25868;SDS011;13688;53.154;18.136;2023-04-24T11:54:53;12.40;;;9.80;;
25868;SDS011;13688;53.154;18.136;2023-04-24T12:00:32;14.20;;;9.00;;
25868;SDS011;13688;53.154;18.136;2023-04-24T12:06:05;11.13;;;9.23;;
25868;SDS011;13688;53.154;18.136;2023-04-24T12:11:29;13.38;;;9.43;;
25868;SDS011;13688;53.154;18.136;2023-04-24T12:16:55;11.10;;;8.25;;
25868;SDS011;13688;53.154;18.136;2023-04-24T12:22:19;13.13;;;8.43;;
25868;SDS011;13688;53.154;18.136;2023-04-24T12:33:32;11.73;;;8.17;;
25868;SDS011;13688;53.154;18.136;2023-04-24T12:38:56;10.95;;;6.30;;
25868;SDS011;13688;53.154;18.136;2023-04-24T12:44:30;7.85;;;5.10;;
25868;SDS011;13688;53.154;18.136;2023-04-24T12:49:55;6.50;;;4.45;;
25868;SDS011;13688;53.154;18.136;2023-04-24T12:55:19;65.72;;;10.32;;
25868;SDS011;13688;53.154;18.136;2023-04-24T13:00:44;6.12;;;3.72;;
25868;SDS011;13688;53.154;18.136;2023-04-24T13:06:08;8.47;;;3.80;;
25868;SDS011;13688;53.154;18.136;2023-04-24T13:11:34;4.50;;;3.37;;
25868;SDS011;13688;53.154;18.136;2023-04-24T13:16:58;8.43;;;3.90;;
25868;SDS011;13688;53.154;18.136;2023-04-24T13:22:23;8.88;;;3.80;;
25868;SDS011;13688;53.154;18.136;2023-04-24T13:27:48;6.67;;;3.62;;
25868;SDS011;13688;53.154;18.136;2023-04-24T13:33:12;11.45;;;4.17;;
25868;SDS011;13688;53.154;18.136;2023-04-24T13:38:37;20.55;;;5.65;;
25868;SDS011;13688;53.154;18.136;2023-04-24T13:44:01;6.83;;;5.30;;
25868;SDS011;13688;53.154;18.136;2023-04-24T13:49:27;10.83;;;6.10;;
25868;SDS011;13688;53.154;18.136;2023-04-24T13:54:50;8.50;;;5.70;;
25868;SDS011;13688;53.154;18.136;2023-04-24T14:00:14;5.83;;;5.20;;
25868;SDS011;13688;53.154;18.136;2023-04-24T14:05:38;12.17;;;6.33;;
25868;SDS011;13688;53.154;18.136;2023-04-24T14:11:03;11.00;;;6.85;;
25868;SDS011;13688;53.154;18.136;2023-04-24T14:16:28;9.67;;;6.90;;
25868;SDS011;13688;53.154;18.136;2023-04-24T14:21:53;10.05;;;6.10;;
25868;SDS011;13688;53.154;18.136;2023-04-24T14:27:18;6.43;;;4.63;;
25868;SDS011;13688;53.154;18.136;2023-04-24T14:32:43;7.42;;;4.50;;
25868;SDS011;13688;53.154;18.136;2023-04-24T14:38:08;7.83;;;4.13;;
25868;SDS011;13688;53.154;18.136;2023-04-24T14:43:33;9.20;;;3.52;;
25868;SDS011;13688;53.154;18.136;2023-04-24T14:48:58;4.93;;;3.80;;
25868;SDS011;13688;53.154;18.136;2023-04-24T14:54:22;5.08;;;4.50;;
25868;SDS011;13688;53.154;18.136;2023-04-24T14:59:46;4.05;;;3.35;;
25868;SDS011;13688;53.154;18.136;2023-04-24T15:05:12;4.40;;;2.90;;
25868;SDS011;13688;53.154;18.136;2023-04-24T15:10:38;3.65;;;2.92;;
25868;SDS011;13688;53.154;18.136;2023-04-24T15:16:02;3.90;;;3.17;;
25868;SDS011;13688;53.154;18.136;2023-04-24T15:21:26;4.03;;;3.00;;
25868;SDS011;13688;53.154;18.136;2023-04-24T15:26:52;5.15;;;2.98;;
25868;SDS011;13688;53.154;18.136;2023-04-24T15:32:19;7.05;;;3.33;;
25868;SDS011;13688;53.154;18.136;2023-04-24T15:37:44;4.60;;;3.30;;
25868;SDS011;13688;53.154;18.136;2023-04-24T15:43:09;4.58;;;2.72;;
25868;SDS011;13688;53.154;18.136;2023-04-24T15:48:35;3.58;;;2.35;;
25868;SDS011;13688;53.154;18.136;2023-04-24T15:54:00;3.17;;;2.77;;
25868;SDS011;13688;53.154;18.136;2023-04-24T15:59:24;3.30;;;2.50;;
25868;SDS011;13688;53.154;18.136;2023-04-24T16:04:49;3.02;;;2.15;;
25868;SDS011;13688;53.154;18.136;2023-04-24T16:10:14;3.70;;;2.27;;
25868;SDS011;13688;53.154;18.136;2023-04-24T16:15:37;3.03;;;2.53;;
25868;SDS011;13688;53.154;18.136;2023-04-24T16:21:03;4.17;;;2.60;;
25868;SDS011;13688;53.154;18.136;2023-04-24T16:26:27;2.67;;;2.20;;
25868;SDS011;13688;53.154;18.136;2023-04-24T16:31:52;5.15;;;2.60;;
25868;SDS011;13688;53.154;18.136;2023-04-24T16:37:16;4.55;;;2.52;;
25868;SDS011;13688;53.154;18.136;2023-04-24T16:42:41;4.17;;;2.67;;
25868;SDS011;13688;53.154;18.136;2023-04-24T16:48:06;4.22;;;2.90;;
25868;SDS011;13688;53.154;18.136;2023-04-24T16:53:30;6.85;;;2.62;;
25868;SDS011;13688;53.154;18.136;2023-04-24T16:58:55;5.17;;;2.98;;
25868;SDS011;13688;53.154;18.136;2023-04-24T17:04:19;4.47;;;2.80;;
25868;SDS011;13688;53.154;18.136;2023-04-24T17:52:24;3.85;;;1.90;;
25868;SDS011;13688;53.154;18.136;2023-04-24T17:57:46;2.85;;;2.30;;
25868;SDS011;13688;53.154;18.136;2023-04-24T18:03:13;6.00;;;2.52;;
25868;SDS011;13688;53.154;18.136;2023-04-24T18:08:36;4.37;;;3.08;;
25868;SDS011;13688;53.154;18.136;2023-04-24T18:13:58;10.08;;;2.83;;
25868;SDS011;13688;53.154;18.136;2023-04-24T18:19:21;3.67;;;2.45;;
25868;SDS011;13688;53.154;18.136;2023-04-24T18:24:43;5.45;;;2.95;;
25868;SDS011;13688;53.154;18.136;2023-04-24T18:30:06;4.55;;;3.10;;
25868;SDS011;13688;53.154;18.136;2023-04-24T18:35:31;4.58;;;3.22;;
25868;SDS011;13688;53.154;18.136;2023-04-24T18:40:53;4.50;;;3.10;;
25868;SDS011;13688;53.154;18.136;2023-04-24T18:46:17;4.72;;;3.15;;
25868;SDS011;13688;53.154;18.136;2023-04-24T18:51:42;4.25;;;3.40;;
25868;SDS011;13688;53.154;18.136;2023-04-24T18:57:05;5.08;;;3.10;;
25868;SDS011;13688;53.154;18.136;2023-04-24T19:02:27;4.30;;;3.65;;
25868;SDS011;13688;53.154;18.136;2023-04-24T19:07:50;6.95;;;4.78;;
25868;SDS011;13688;53.154;18.136;2023-04-24T19:13:13;6.78;;;3.90;;
25868;SDS011;13688;53.154;18.136;2023-04-24T19:18:35;6.47;;;4.33;;
25868;SDS011;13688;53.154;18.136;2023-04-24T19:23:58;6.50;;;4.47;;
25868;SDS011;13688;53.154;18.136;2023-04-24T19:29:24;9.15;;;6.75;;
25868;SDS011;13688;53.154;18.136;2023-04-24T19:34:46;9.08;;;5.75;;
25868;SDS011;13688;53.154;18.136;2023-04-24T19:40:09;10.00;;;5.72;;
25868;SDS011;13688;53.154;18.136;2023-04-24T19:45:32;7.78;;;5.53;;
25868;SDS011;13688;53.154;18.136;2023-04-24T19:50:55;6.08;;;5.05;;
25868;SDS011;13688;53.154;18.136;2023-04-24T19:56:18;14.43;;;6.10;;
25868;SDS011;13688;53.154;18.136;2023-04-24T20:01:41;9.53;;;5.65;;
25868;SDS011;13688;53.154;18.136;2023-04-24T20:07:03;7.28;;;5.95;;
25868;SDS011;13688;53.154;18.136;2023-04-24T20:12:26;8.03;;;6.28;;
25868;SDS011;13688;53.154;18.136;2023-04-24T20:17:49;7.62;;;5.83;;
25868;SDS011;13688;53.154;18.136;2023-04-24T20:23:11;8.13;;;5.92;;
25868;SDS011;13688;53.154;18.136;2023-04-24T20:28:34;8.30;;;6.15;;
25868;SDS011;13688;53.154;18.136;2023-04-24T20:33:57;10.78;;;6.87;;
25868;SDS011;13688;53.154;18.136;2023-04-24T20:39:19;11.15;;;7.33;;
25868;SDS011;13688;53.154;18.136;2023-04-24T20:44:41;13.85;;;7.83;;
25868;SDS011;13688;53.154;18.136;2023-04-24T20:50:04;11.40;;;7.85;;
25868;SDS011;13688;53.154;18.136;2023-04-24T20:55:27;11.60;;;8.65;;
25868;SDS011;13688;53.154;18.136;2023-04-24T21:00:50;10.10;;;7.45;;
25868;SDS011;13688;53.154;18.136;2023-04-24T21:06:12;13.03;;;8.20;;
25868;SDS011;13688;53.154;18.136;2023-04-24T21:11:35;12.20;;;7.75;;
25868;SDS011;13688;53.154;18.136;2023-04-24T21:16:57;12.58;;;6.95;;
25868;SDS011;13688;53.154;18.136;2023-04-24T21:22:19;10.28;;;6.53;;
25868;SDS011;13688;53.154;18.136;2023-04-24T21:27:42;10.53;;;6.80;;
25868;SDS011;13688;53.154;18.136;2023-04-24T21:33:04;9.43;;;6.65;;
25868;SDS011;13688;53.154;18.136;2023-04-24T21:38:27;10.53;;;6.90;;
25868;SDS011;13688;53.154;18.136;2023-04-24T21:43:50;9.80;;;6.95;;
25868;SDS011;13688;53.154;18.136;2023-04-24T21:49:12;13.95;;;7.67;;
25868;SDS011;13688;53.154;18.136;2023-04-24T21:54:34;11.35;;;8.80;;
25868;SDS011;13688;53.154;18.136;2023-04-24T21:59:56;10.45;;;7.40;;
25868;SDS011;13688;53.154;18.136;2023-04-24T22:05:20;9.73;;;5.90;;
25868;SDS011;13688;53.154;18.136;2023-04-24T22:10:43;8.58;;;5.22;;
25868;SDS011;13688;53.154;18.136;2023-04-24T22:16:08;6.42;;;4.92;;
25868;SDS011;13688;53.154;18.136;2023-04-24T22:21:33;9.30;;;4.85;;
25868;SDS011;13688;53.154;18.136;2023-04-24T22:26:55;6.67;;;4.40;;
25868;SDS011;13688;53.154;18.136;2023-04-24T22:32:18;6.92;;;4.12;;
25868;SDS011;13688;53.154;18.136;2023-04-24T22:37:41;5.83;;;4.17;;
25868;SDS011;13688;53.154;18.136;2023-04-24T22:43:06;7.92;;;3.85;;
25868;SDS011;13688;53.154;18.136;2023-04-24T22:48:28;5.40;;;3.92;;
25868;SDS011;13688;53.154;18.136;2023-04-24T22:53:54;4.97;;;3.72;;
25868;SDS011;13688;53.154;18.136;2023-04-24T22:59:18;6.70;;;3.72;;
25868;SDS011;13688;53.154;18.136;2023-04-24T23:04:40;7.30;;;3.90;;
25868;SDS011;13688;53.154;18.136;2023-04-24T23:10:03;6.83;;;3.72;;
25868;SDS011;13688;53.154;18.136;2023-04-24T23:15:25;4.62;;;3.20;;
25868;SDS011;13688;53.154;18.136;2023-04-24T23:20:48;6.78;;;3.30;;
25868;SDS011;13688;53.154;18.136;2023-04-24T23:26:10;5.55;;;3.80;;
25868;SDS011;13688;53.154;18.136;2023-04-24T23:31:32;4.92;;;2.90;;
25868;SDS011;13688;53.154;18.136;2023-04-24T23:36:55;5.22;;;2.80;;
25868;SDS011;13688;53.154;18.136;2023-04-24T23:42:19;4.15;;;2.75;;
25868;SDS011;13688;53.154;18.136;2023-04-24T23:47:41;5.28;;;3.10;;
25868;SDS011;13688;53.154;18.136;2023-04-24T23:53:04;6.50;;;2.40;;
25868;SDS011;13688;53.154;18.136;2023-04-24T23:58:26;3.62;;;2.50;;
